Time,TemperatureF,DewpointF,PressureIn,WindDirection,WindDirectionDegrees,WindSpeedMPH,WindSpeedGustMPH,Humidity,HourlyPrecipIn,Conditions,Clouds,dailyrainin,SolarRadiationWatts/m^2,SoftwareType,DateUTC
2013-07-10 00:02:00,69.0,63.0,-100.00,WNW,300,8.0,14.0,82,0.00,,,0.03,0.000000,,2013-07-10 05:02:00,
2013-07-10 00:12:00,69.0,63.0,-100.00,WNW,300,8.0,14.0,82,0.00,,,0.03,0.000000,,2013-07-10 05:12:00,
2013-07-10 00:20:00,68.0,59.0,-100.00,NW,314,11.0,19.0,74,0.00,,,0.03,0.000000,,2013-07-10 05:20:00,
2013-07-10 00:53:00,68.0,59.0,-100.00,NW,314,11.0,19.0,74,0.00,,,0.03,0.000000,,2013-07-10 05:53:00,
2013-07-10 01:01:00,68.0,59.0,-100.00,NW,314,11.0,19.0,74,0.00,,,0.03,0.000000,,2013-07-10 06:01:00,
2013-07-10 01:11:00,68.0,59.0,-100.00,NW,314,11.0,19.0,74,0.00,,,0.03,0.000000,,2013-07-10 06:11:00,
2013-07-10 01:20:00,65.0,57.0,-100.00,NW,312,9.0,19.0,76,0.00,,,0.03,0.000000,,2013-07-10 06:20:00,
2013-07-10 01:42:00,65.0,57.0,-100.00,NW,312,9.0,19.0,76,0.00,,,0.03,0.000000,,2013-07-10 06:42:00,
2013-07-10 01:52:00,65.0,57.0,-100.00,NW,312,9.0,19.0,76,0.00,,,0.03,0.000000,,2013-07-10 06:52:00,
2013-07-10 02:01:00,65.0,57.0,-100.00,NW,312,9.0,19.0,76,0.00,,,0.03,0.000000,,2013-07-10 07:01:00,
2013-07-10 02:11:00,65.0,57.0,-100.00,NW,312,9.0,19.0,76,0.00,,,0.03,0.000000,,2013-07-10 07:11:00,
2013-07-10 02:20:00,63.0,57.0,-100.00,WNW,301,8.0,13.0,80,0.00,,,0.03,0.000000,,2013-07-10 07:20:00,
2013-07-10 02:43:00,63.0,57.0,-100.00,WNW,301,8.0,13.0,80,0.00,,,0.03,0.000000,,2013-07-10 07:43:00,
2013-07-10 02:53:00,63.0,57.0,-100.00,WNW,301,8.0,13.0,80,0.00,,,0.03,0.000000,,2013-07-10 07:53:00,
2013-07-10 03:01:00,63.0,57.0,-100.00,WNW,301,8.0,13.0,80,0.00,,,0.03,0.000000,,2013-07-10 08:01:00,
2013-07-10 03:11:00,63.0,57.0,-100.00,WNW,301,8.0,13.0,80,0.00,,,0.03,0.000000,,2013-07-10 08:11:00,
2013-07-10 03:20:00,61.0,56.0,-100.00,WNW,299,6.0,12.0,83,0.00,,,0.03,0.000000,,2013-07-10 08:20:00,
2013-07-10 03:53:00,61.0,56.0,-100.00,WNW,299,6.0,12.0,83,0.00,,,0.03,0.000000,,2013-07-10 08:53:00,
2013-07-10 04:02:00,61.0,56.0,-100.00,WNW,299,6.0,12.0,83,0.00,,,0.03,0.000000,,2013-07-10 09:02:00,
2013-07-10 04:12:00,61.0,56.0,-100.00,WNW,299,6.0,12.0,83,0.00,,,0.03,0.000000,,2013-07-10 09:12:00,
2013-07-10 04:20:00,59.0,55.0,-100.00,WNW,296,5.0,9.0,88,0.00,,,0.03,0.000000,,2013-07-10 09:20:00,
2013-07-10 04:43:00,59.0,55.0,-100.00,WNW,296,5.0,9.0,88,0.00,,,0.03,0.000000,,2013-07-10 09:43:00,
2013-07-10 04:53:00,59.0,55.0,-100.00,WNW,296,5.0,9.0,88,0.00,,,0.03,0.000000,,2013-07-10 09:53:00,
2013-07-10 05:01:00,59.0,55.0,-100.00,WNW,296,5.0,9.0,88,0.00,,,0.03,0.000000,,2013-07-10 10:01:00,
2013-07-10 05:13:00,59.0,55.0,-100.00,WNW,296,5.0,9.0,88,0.00,,,0.03,0.000000,,2013-07-10 10:13:00,
2013-07-10 05:20:00,58.0,55.0,-100.00,WNW,288,5.0,8.0,91,0.00,,,0.03,0.000000,,2013-07-10 10:20:00,
2013-07-10 05:51:00,-999.0,-99.9,-100.00,WNW,288,5.0,8.0,-999,-99.99,,,-99.99,0.000000,,2013-07-10 10:51:00,
2013-07-10 06:00:00,-999.0,-99.9,-100.00,WNW,288,5.0,8.0,-999,-99.99,,,-99.99,0.000000,,2013-07-10 11:00:00,
2013-07-10 06:11:00,58.0,55.0,-100.00,WNW,288,5.0,8.0,91,0.00,,,0.03,0.000000,,2013-07-10 11:11:00,
2013-07-10 09:20:00,68.0,58.0,-100.00,WNW,295,9.0,15.0,70,-99.99,,,0.00,502.000000,,2013-07-10 14:20:00,
2013-07-10 09:43:00,68.0,58.0,-100.00,WNW,295,9.0,15.0,70,-99.99,,,0.00,502.000000,,2013-07-10 14:43:00,
2013-07-10 09:53:00,68.0,58.0,-100.00,WNW,295,9.0,15.0,70,-99.99,,,0.00,502.000000,,2013-07-10 14:53:00,
2013-07-10 10:01:00,68.0,58.0,-100.00,WNW,295,9.0,15.0,70,-99.99,,,0.00,502.000000,,2013-07-10 15:01:00,
2013-07-10 10:11:00,68.0,58.0,-100.00,WNW,295,9.0,15.0,70,-99.99,,,0.00,502.000000,,2013-07-10 15:11:00,
2013-07-10 10:20:00,71.0,58.0,-100.00,NW,311,8.0,16.0,64,0.00,,,0.00,705.000000,,2013-07-10 15:20:00,
2013-07-10 10:52:00,71.0,58.0,-100.00,NW,311,8.0,16.0,64,0.00,,,0.00,705.000000,,2013-07-10 15:52:00,
2013-07-10 11:01:00,71.0,58.0,-100.00,NW,311,8.0,16.0,64,0.00,,,0.00,705.000000,,2013-07-10 16:01:00,
2013-07-10 11:11:00,71.0,58.0,-100.00,NW,311,8.0,16.0,64,0.00,,,0.00,705.000000,,2013-07-10 16:11:00,
2013-07-10 11:20:00,73.0,54.0,-100.00,NW,313,11.0,16.0,52,0.00,,,0.00,862.000000,,2013-07-10 16:20:00,
2013-07-10 11:44:00,73.0,54.0,-100.00,NW,313,11.0,16.0,52,0.00,,,0.00,862.000000,,2013-07-10 16:44:00,
2013-07-10 11:53:00,73.0,54.0,-100.00,NW,313,11.0,16.0,52,0.00,,,0.00,862.000000,,2013-07-10 16:53:00,
2013-07-10 12:02:00,73.0,54.0,-100.00,NW,313,11.0,16.0,52,0.00,,,0.00,862.000000,,2013-07-10 17:02:00,
2013-07-10 12:11:00,73.0,54.0,-100.00,NW,313,11.0,16.0,52,0.00,,,0.00,862.000000,,2013-07-10 17:11:00,
2013-07-10 12:20:00,75.0,54.0,-100.00,NNW,328,9.0,19.0,48,0.00,,,0.00,977.000000,,2013-07-10 17:20:00,
2013-07-10 12:43:00,75.0,54.0,-100.00,NNW,328,9.0,19.0,48,0.00,,,0.00,977.000000,,2013-07-10 17:43:00,
2013-07-10 12:53:00,75.0,54.0,-100.00,NNW,328,9.0,19.0,48,0.00,,,0.00,977.000000,,2013-07-10 17:53:00,
2013-07-10 13:02:00,75.0,54.0,-100.00,NNW,328,9.0,19.0,48,0.00,,,0.00,977.000000,,2013-07-10 18:02:00,
2013-07-10 13:11:00,75.0,54.0,-100.00,NNW,328,9.0,19.0,48,0.00,,,0.00,977.000000,,2013-07-10 18:11:00,
2013-07-10 13:20:00,77.0,55.0,-100.00,NW,325,9.0,18.0,46,0.00,,,0.00,1039.000000,,2013-07-10 18:20:00,
2013-07-10 13:44:00,77.0,55.0,-100.00,NW,325,9.0,18.0,46,0.00,,,0.00,1039.000000,,2013-07-10 18:44:00,
2013-07-10 13:53:00,77.0,55.0,-100.00,NW,325,9.0,18.0,46,0.00,,,0.00,1039.000000,,2013-07-10 18:53:00,
2013-07-10 14:01:00,77.0,55.0,-100.00,NW,325,9.0,18.0,46,0.00,,,0.00,1039.000000,,2013-07-10 19:01:00,
2013-07-10 14:11:00,77.0,55.0,-100.00,NW,325,9.0,18.0,46,0.00,,,0.00,1039.000000,,2013-07-10 19:11:00,
2013-07-10 14:20:00,78.0,55.0,-100.00,NNW,327,8.0,16.0,45,0.00,,,0.00,1012.000000,,2013-07-10 19:20:00,
2013-07-10 14:42:00,78.0,55.0,-100.00,NNW,327,8.0,16.0,45,0.00,,,0.00,1012.000000,,2013-07-10 19:42:00,
2013-07-10 14:53:00,78.0,55.0,-100.00,NNW,327,8.0,16.0,45,0.00,,,0.00,1012.000000,,2013-07-10 19:53:00,
2013-07-10 15:01:00,78.0,55.0,-100.00,NNW,327,8.0,16.0,45,0.00,,,0.00,1012.000000,,2013-07-10 20:01:00,
2013-07-10 15:11:00,78.0,55.0,-100.00,NNW,327,8.0,16.0,45,0.00,,,0.00,1012.000000,,2013-07-10 20:11:00,
2013-07-10 15:20:00,78.0,55.0,-100.00,NNW,341,6.0,14.0,45,0.00,,,0.00,901.000000,,2013-07-10 20:20:00,
2013-07-10 15:43:00,78.0,55.0,-100.00,NNW,341,6.0,14.0,45,0.00,,,0.00,901.000000,,2013-07-10 20:43:00,
2013-07-10 15:52:00,78.0,55.0,-100.00,NNW,341,6.0,14.0,45,0.00,,,0.00,901.000000,,2013-07-10 20:52:00,
2013-07-10 16:01:00,78.0,55.0,-100.00,NNW,341,6.0,14.0,45,0.00,,,0.00,901.000000,,2013-07-10 21:01:00,
2013-07-10 16:11:00,78.0,55.0,-100.00,NNW,341,6.0,14.0,45,0.00,,,0.00,901.000000,,2013-07-10 21:11:00,
2013-07-10 16:20:00,79.0,54.0,-100.00,NW,311,8.0,15.0,42,0.00,,,-99.99,892.000000,,2013-07-10 21:20:00,
2013-07-10 16:52:00,79.0,54.0,-100.00,NW,311,8.0,15.0,42,0.00,,,-99.99,892.000000,,2013-07-10 21:52:00,
2013-07-10 17:01:00,79.0,54.0,-100.00,NW,311,8.0,15.0,42,0.00,,,-99.99,892.000000,,2013-07-10 22:01:00,
2013-07-10 17:11:00,79.0,54.0,-100.00,NW,311,8.0,15.0,42,0.00,,,-99.99,892.000000,,2013-07-10 22:11:00,
2013-07-10 17:20:00,76.0,55.0,-100.00,NNW,330,4.0,14.0,49,0.00,,,-99.99,532.000000,,2013-07-10 22:20:00,
2013-07-10 17:53:00,76.0,55.0,-100.00,NNW,330,4.0,14.0,49,0.00,,,-99.99,532.000000,,2013-07-10 22:53:00,
2013-07-10 18:01:00,76.0,55.0,-100.00,NNW,330,4.0,14.0,49,0.00,,,-99.99,532.000000,,2013-07-10 23:01:00,
2013-07-10 18:11:00,76.0,55.0,-100.00,NNW,330,4.0,14.0,49,0.00,,,-99.99,532.000000,,2013-07-10 23:11:00,
2013-07-10 18:20:00,79.0,58.0,-100.00,NW,309,4.0,8.0,48,0.00,,,0.00,445.000000,,2013-07-10 23:20:00,
2013-07-10 18:52:00,79.0,58.0,-100.00,NW,309,4.0,8.0,48,0.00,,,0.00,445.000000,,2013-07-10 23:52:00,
2013-07-10 19:01:00,79.0,58.0,-100.00,NW,309,4.0,8.0,48,0.00,,,0.00,445.000000,,2013-07-11 00:01:00,
2013-07-10 19:11:00,79.0,58.0,-100.00,NW,309,4.0,8.0,48,0.00,,,0.00,445.000000,,2013-07-11 00:11:00,
2013-07-10 19:20:00,77.0,59.0,-100.00,WNW,302,3.0,8.0,53,0.00,,,0.00,290.000000,,2013-07-11 00:20:00,
2013-07-10 19:43:00,77.0,59.0,-100.00,WNW,302,3.0,8.0,53,0.00,,,0.00,290.000000,,2013-07-11 00:43:00,
2013-07-10 19:52:00,77.0,59.0,-100.00,WNW,302,3.0,8.0,53,0.00,,,0.00,290.000000,,2013-07-11 00:52:00,
2013-07-10 20:01:00,77.0,59.0,-100.00,WNW,302,3.0,8.0,53,0.00,,,0.00,290.000000,,2013-07-11 01:01:00,
2013-07-10 20:11:00,77.0,59.0,-100.00,WNW,302,3.0,8.0,53,0.00,,,0.00,290.000000,,2013-07-11 01:11:00,
2013-07-10 20:20:00,73.0,62.0,-100.00,West,280,0.0,6.0,68,0.00,,,0.00,119.000000,,2013-07-11 01:20:00,
2013-07-10 20:43:00,73.0,62.0,-100.00,West,280,0.0,6.0,68,0.00,,,0.00,119.000000,,2013-07-11 01:43:00,
2013-07-10 20:52:00,73.0,62.0,-100.00,West,280,0.0,6.0,68,0.00,,,0.00,119.000000,,2013-07-11 01:52:00,
2013-07-10 21:02:00,73.0,62.0,-100.00,West,280,0.0,6.0,68,0.00,,,0.00,119.000000,,2013-07-11 02:02:00,
2013-07-10 21:11:00,73.0,62.0,-100.00,West,280,0.0,6.0,68,0.00,,,0.00,119.000000,,2013-07-11 02:11:00,
2013-07-10 21:20:00,65.0,61.0,-100.00,NW,317,0.0,0.0,87,0.00,,,0.00,16.000000,,2013-07-11 02:20:00,
2013-07-10 21:44:00,65.0,61.0,-100.00,NW,317,0.0,0.0,87,0.00,,,0.00,16.000000,,2013-07-11 02:44:00,
2013-07-10 21:53:00,65.0,61.0,-100.00,NW,317,0.0,0.0,87,0.00,,,0.00,16.000000,,2013-07-11 02:53:00,
2013-07-10 22:02:00,65.0,61.0,-100.00,NW,317,0.0,0.0,87,0.00,,,0.00,16.000000,,2013-07-11 03:02:00,
2013-07-10 22:11:00,65.0,61.0,-100.00,NW,317,0.0,0.0,87,0.00,,,0.00,16.000000,,2013-07-11 03:11:00,
2013-07-10 22:20:00,60.0,59.0,-100.00,NW,319,0.0,0.0,95,0.00,,,0.00,0.000000,,2013-07-11 03:20:00,
2013-07-10 22:53:00,60.0,59.0,-100.00,NW,319,0.0,0.0,95,0.00,,,0.00,0.000000,,2013-07-11 03:53:00,
2013-07-10 23:01:00,60.0,59.0,-100.00,NW,319,0.0,0.0,95,0.00,,,0.00,0.000000,,2013-07-11 04:01:00,
2013-07-10 23:12:00,60.0,59.0,-100.00,NW,319,0.0,0.0,95,0.00,,,0.00,0.000000,,2013-07-11 04:12:00,
2013-07-10 23:20:00,59.0,58.0,-100.00,NW,310,0.0,0.0,95,0.00,,,0.00,0.000000,,2013-07-11 04:20:00,
2013-07-10 23:43:00,59.0,58.0,-100.00,NW,310,0.0,0.0,95,0.00,,,0.00,0.000000,,2013-07-11 04:43:00,
2013-07-10 23:53:00,59.0,58.0,-100.00,NW,310,0.0,0.0,95,0.00,,,0.00,0.000000,,2013-07-11 04:53:00,